Terminal Aerodrome Forecast
Issued by NWS Central Illinois

Current Version | Previous Version | Text Only | Print | Product List | Glossary On
Versions: 1 2 3 4 5 6 7 8 9 10 11 12 13 14 15 16 17 18 19 20
506
FTUS43 KILX 011257 AAA
TAFSPI
TAF AMD
KSPI 011257Z 0113/0212 32004KT 4SM -DZ BR FEW008 OVC020
     FM011500 32005KT P6SM VCSH OVC012
     FM011700 32007KT P6SM VCSH BKN015 OVC035
     FM020000 30004KT P6SM OVC025
     FM020800 32004KT 4SM BR BKN007=

USA.gov is the U.S. government's official web portal to all federal, state and local government web resources and services.